createdAt,value
2023-04-12T00:00:19.467Z,99.99
2023-04-12T00:01:19.668Z,99.99
2023-04-12T00:02:19.634Z,99.99
2023-04-12T00:03:19.700Z,99.99
2023-04-12T00:04:19.468Z,99.99
2023-04-12T00:05:19.488Z,99.99
2023-04-12T00:06:19.388Z,99.99
2023-04-12T00:07:19.371Z,99.99
2023-04-12T00:08:19.379Z,99.99
2023-04-12T00:09:19.359Z,99.99
2023-04-12T00:10:19.336Z,99.99
2023-04-12T00:11:19.326Z,99.99
2023-04-12T00:12:19.340Z,99.99
2023-04-12T00:13:19.272Z,99.99
2023-04-12T00:14:19.258Z,99.99
2023-04-12T00:15:19.270Z,99.99
2023-04-12T00:16:19.319Z,99.99
2023-04-12T00:17:19.340Z,99.99
2023-04-12T00:18:19.241Z,99.99
2023-04-12T00:19:19.620Z,99.99
2023-04-12T00:20:19.224Z,99.99
2023-04-12T00:21:19.214Z,99.99
2023-04-12T00:22:19.150Z,99.99
2023-04-12T00:23:19.179Z,99.99
2023-04-12T00:24:19.171Z,99.99
2023-04-12T00:25:19.114Z,99.99
2023-04-12T00:26:19.104Z,99.99
2023-04-12T00:27:19.127Z,99.99
2023-04-12T00:28:19.109Z,99.99
2023-04-12T00:29:19.078Z,99.99
2023-04-12T00:30:19.116Z,99.99
2023-04-12T00:31:19.110Z,99.99
2023-04-12T00:32:19.170Z,99.99
2023-04-12T00:33:19.060Z,99.99
2023-04-12T00:34:19.014Z,99.99
2023-04-12T00:35:19.044Z,99.99
2023-04-12T00:36:19.053Z,99.99
2023-04-12T00:37:18.976Z,99.99
2023-04-12T00:38:18.971Z,99.99
2023-04-12T00:39:18.932Z,99.99
2023-04-12T00:40:18.976Z,99.99
2023-04-12T00:41:19.124Z,99.99
2023-04-12T00:42:18.904Z,99.99
2023-04-12T00:43:19.119Z,99.99
2023-04-12T00:44:18.861Z,99.99
2023-04-12T00:45:18.883Z,99.99
2023-04-12T00:46:18.907Z,99.99
2023-04-12T00:47:18.864Z,99.99
2023-04-12T00:48:18.820Z,99.99
2023-04-12T00:49:18.815Z,99.99
2023-04-12T00:50:18.832Z,99.99
2023-04-12T00:51:18.870Z,99.99
2023-04-12T00:52:18.768Z,99.99
2023-04-12T00:53:18.768Z,99.99
2023-04-12T00:54:18.783Z,99.99
2023-04-12T00:55:18.800Z,99.99
2023-04-12T00:56:18.703Z,99.99
2023-04-12T00:57:18.703Z,99.99
2023-04-12T00:58:18.724Z,99.99
2023-04-12T00:59:18.727Z,99.99
2023-04-12T01:00:18.668Z,99.99
2023-04-12T01:01:18.812Z,99.99
2023-04-12T01:02:18.718Z,99.99
2023-04-12T01:03:18.889Z,99.99
2023-04-12T01:04:18.638Z,99.99
2023-04-12T01:05:18.606Z,99.99
2023-04-12T01:06:18.630Z,99.99
2023-04-12T01:07:18.623Z,99.99
2023-04-12T01:08:18.562Z,99.99
2023-04-12T01:09:18.598Z,99.99
2023-04-12T01:10:18.539Z,99.99
2023-04-12T01:11:18.546Z,99.99
2023-04-12T01:12:18.518Z,99.99
2023-04-12T01:13:18.546Z,99.99
2023-04-12T01:14:18.508Z,99.99
2023-04-12T01:15:18.522Z,99.99
2023-04-12T01:16:18.521Z,99.99
2023-04-12T01:17:18.429Z,99.99
2023-04-12T01:18:18.428Z,99.99
2023-04-12T01:19:18.400Z,99.99
2023-04-12T01:20:18.395Z,99.99
2023-04-12T01:21:18.373Z,99.99
2023-04-12T01:22:18.371Z,99.99
2023-04-12T01:23:18.390Z,99.99
2023-04-12T01:24:18.382Z,99.99
2023-04-12T01:25:18.379Z,99.99
2023-04-12T01:26:18.352Z,99.99
2023-04-12T01:27:18.324Z,99.99
2023-04-12T01:28:18.306Z,99.99
2023-04-12T01:29:18.308Z,99.99
2023-04-12T01:30:18.286Z,99.99
2023-04-12T01:31:18.270Z,99.99
2023-04-12T01:32:18.252Z,99.99
2023-04-12T01:33:18.220Z,99.99
2023-04-12T01:34:18.208Z,99.99
2023-04-12T01:35:18.238Z,99.99
2023-04-12T01:36:18.195Z,99.99
2023-04-12T01:37:18.181Z,99.99
2023-04-12T01:38:18.159Z,99.99
2023-04-12T01:39:18.196Z,99.99
2023-04-12T01:40:18.129Z,99.99
2023-04-12T01:41:18.130Z,99.99
2023-04-12T01:42:18.110Z,99.99
2023-04-12T01:43:18.091Z,99.99
2023-04-12T01:44:18.084Z,99.99
2023-04-12T01:45:18.078Z,99.99
2023-04-12T01:46:18.129Z,99.99
2023-04-12T01:47:18.040Z,99.99
2023-04-12T01:48:18.023Z,99.99
2023-04-12T01:49:18.017Z,99.99
2023-04-12T01:50:17.994Z,99.99
2023-04-12T01:51:17.992Z,99.99
2023-04-12T01:52:17.973Z,99.99
2023-04-12T01:53:17.974Z,99.99
2023-04-12T01:54:17.935Z,99.99
2023-04-12T01:55:17.966Z,99.99
2023-04-12T01:56:17.915Z,99.99
2023-04-12T01:57:17.906Z,99.99
2023-04-12T01:58:17.897Z,99.99
2023-04-12T01:59:17.896Z,99.99
2023-04-12T02:00:17.875Z,99.99
2023-04-12T02:01:17.937Z,99.99
2023-04-12T02:02:17.897Z,99.99
2023-04-12T02:03:17.975Z,99.99
2023-04-12T02:04:17.899Z,99.99
2023-04-12T02:05:17.825Z,99.99
2023-04-12T02:06:17.782Z,99.99
2023-04-12T02:07:17.760Z,99.99
2023-04-12T02:08:17.752Z,99.99
2023-04-12T02:09:17.944Z,99.99
2023-04-12T02:10:17.729Z,99.99
2023-04-12T02:11:17.746Z,99.99
2023-04-12T02:12:17.704Z,99.99
2023-04-12T02:13:17.688Z,99.99
2023-04-12T02:14:17.686Z,99.99
2023-04-12T02:15:17.649Z,99.99
2023-04-12T02:16:17.660Z,99.99
2023-04-12T02:17:17.626Z,99.99
2023-04-12T02:18:17.605Z,99.99
2023-04-12T02:19:17.616Z,99.99
2023-04-12T02:20:17.585Z,99.99
2023-04-12T02:21:17.610Z,99.99
2023-04-12T02:22:17.615Z,99.99
2023-04-12T02:23:17.557Z,99.99
2023-04-12T02:24:17.533Z,99.99
2023-04-12T02:25:17.536Z,99.99
2023-04-12T02:26:17.507Z,99.99
2023-04-12T02:27:17.520Z,99.99
2023-04-12T02:28:17.486Z,99.99
2023-04-12T02:29:17.464Z,99.99
2023-04-12T02:30:17.479Z,99.99
2023-04-12T02:31:17.740Z,99.99
2023-04-12T02:32:17.424Z,99.99
2023-04-12T02:33:17.420Z,99.99
2023-04-12T02:34:17.396Z,99.99
2023-04-12T02:35:17.381Z,99.99
2023-04-12T02:36:17.366Z,99.99
2023-04-12T02:37:17.372Z,99.99
2023-04-12T02:38:17.340Z,99.99
2023-04-12T02:39:17.335Z,99.99
2023-04-12T02:40:17.316Z,99.99
2023-04-12T02:41:17.298Z,99.99
2023-04-12T02:42:17.281Z,99.99
2023-04-12T02:43:17.339Z,99.99
2023-04-12T02:44:17.260Z,99.99
2023-04-12T02:45:17.259Z,99.99
2023-04-12T02:46:17.322Z,99.99
2023-04-12T02:47:17.210Z,99.99
2023-04-12T02:48:17.210Z,99.99
2023-04-12T02:49:17.213Z,99.99
2023-04-12T02:50:17.162Z,99.99
2023-04-12T02:51:17.164Z,99.99
2023-04-12T02:52:17.149Z,99.99
2023-04-12T02:53:17.125Z,99.99
2023-04-12T02:54:17.110Z,99.99
2023-04-12T02:55:17.116Z,99.99
2023-04-12T02:56:17.075Z,99.99
2023-04-12T02:57:17.091Z,99.99
2023-04-12T02:58:17.066Z,99.99
2023-04-12T02:59:17.055Z,99.99
2023-04-12T03:00:17.028Z,99.99
2023-04-12T03:01:17.069Z,99.99
2023-04-12T03:02:17.246Z,99.99
2023-04-12T03:03:17.330Z,99.99
2023-04-12T03:04:17.145Z,99.99
2023-04-12T03:05:16.958Z,99.99
2023-04-12T03:06:16.940Z,99.99
2023-04-12T03:07:16.966Z,99.99
2023-04-12T03:08:16.931Z,99.99
2023-04-12T03:09:16.922Z,99.99
2023-04-12T03:10:16.888Z,99.99
2023-04-12T03:11:16.900Z,99.99
2023-04-12T03:12:17.052Z,99.99
2023-04-12T03:13:16.856Z,99.99
2023-04-12T03:14:16.836Z,99.99
2023-04-12T03:15:16.855Z,99.99
2023-04-12T03:16:16.848Z,99.99
2023-04-12T03:17:16.794Z,99.99
2023-04-12T03:18:16.775Z,99.99
2023-04-12T03:19:16.789Z,99.99
2023-04-12T03:20:16.753Z,99.99
2023-04-12T03:21:16.743Z,99.99
2023-04-12T03:22:16.722Z,99.99
2023-04-12T03:23:16.915Z,99.99
2023-04-12T03:24:16.689Z,99.99
2023-04-12T03:25:16.679Z,99.99
2023-04-12T03:26:16.656Z,99.99
2023-04-12T03:27:16.640Z,99.99
2023-04-12T03:28:16.637Z,99.99
2023-04-12T03:29:16.630Z,99.99
2023-04-12T03:30:16.601Z,99.99
2023-04-12T03:31:16.638Z,99.99
2023-04-12T03:32:16.569Z,99.99
2023-04-12T03:33:16.569Z,99.99
2023-04-12T03:34:16.553Z,99.99
2023-04-12T03:35:16.564Z,99.99
2023-04-12T03:36:16.536Z,99.99
2023-04-12T03:37:16.573Z,99.99
2023-04-12T03:38:16.498Z,99.99
2023-04-12T03:39:16.487Z,99.99
2023-04-12T03:40:16.481Z,99.99
2023-04-12T03:41:16.865Z,99.99
2023-04-12T03:42:31.829Z,99.99
2023-04-12T03:43:16.446Z,99.99
2023-04-12T03:44:16.416Z,99.99
2023-04-12T03:45:16.403Z,99.99
2023-04-12T03:46:16.386Z,99.99
2023-04-12T03:47:16.386Z,99.99
2023-04-12T03:48:16.380Z,99.99
2023-04-12T03:49:16.362Z,99.99
2023-04-12T03:50:16.353Z,99.99
2023-04-12T03:51:16.330Z,99.99
2023-04-12T03:52:16.318Z,99.99
2023-04-12T03:53:16.303Z,99.99
2023-04-12T03:54:16.284Z,99.99
2023-04-12T03:55:16.274Z,99.99
2023-04-12T03:56:16.258Z,99.99
2023-04-12T03:57:16.233Z,99.99
2023-04-12T03:58:16.230Z,99.99
2023-04-12T03:59:16.215Z,99.99
2023-04-12T04:00:16.196Z,99.99
2023-04-12T04:01:16.187Z,99.99
2023-04-12T04:02:16.416Z,99.99
2023-04-12T04:03:16.244Z,99.99
2023-04-12T04:04:16.310Z,99.99
2023-04-12T04:05:16.209Z,99.99
2023-04-12T04:06:16.124Z,99.99
2023-04-12T04:07:16.112Z,99.99
2023-04-12T04:08:16.100Z,99.99
2023-04-12T04:09:16.061Z,99.99
2023-04-12T04:10:16.081Z,99.99
2023-04-12T04:11:16.047Z,99.99
2023-04-12T04:12:16.038Z,99.99
2023-04-12T04:13:16.009Z,99.99
2023-04-12T04:14:16.024Z,99.99
2023-04-12T04:15:16.026Z,99.99
2023-04-12T04:16:16.015Z,99.99
2023-04-12T04:17:16.056Z,99.99
2023-04-12T04:18:15.964Z,99.99
2023-04-12T04:19:15.978Z,99.99
2023-04-12T04:20:15.955Z,99.99
2023-04-12T04:21:16.054Z,99.99
2023-04-12T04:22:15.887Z,99.99
2023-04-12T04:23:15.887Z,99.99
2023-04-12T04:24:15.876Z,99.99
2023-04-12T04:25:15.931Z,99.99
2023-04-12T04:26:15.838Z,99.99
2023-04-12T04:27:15.875Z,99.99
2023-04-12T04:28:15.857Z,99.99
2023-04-12T04:29:15.795Z,99.99
2023-04-12T04:30:15.784Z,99.99
2023-04-12T04:31:15.798Z,99.99
2023-04-12T04:32:15.780Z,99.99
2023-04-12T04:33:15.735Z,99.99
2023-04-12T04:34:15.738Z,99.99
2023-04-12T04:35:15.734Z,99.99
2023-04-12T04:36:15.723Z,99.99
2023-04-12T04:37:15.679Z,99.99
2023-04-12T04:38:15.681Z,99.99
2023-04-12T04:39:15.672Z,99.99
2023-04-12T04:40:15.659Z,99.99
2023-04-12T04:41:15.632Z,99.99
2023-04-12T04:42:15.629Z,99.99
2023-04-12T04:43:15.606Z,99.99
2023-04-12T04:44:15.597Z,99.99
2023-04-12T04:45:15.588Z,99.99
2023-04-12T04:46:15.652Z,99.99
2023-04-12T04:47:15.551Z,99.99
2023-04-12T04:48:15.738Z,99.99
2023-04-12T04:49:15.544Z,99.99
2023-04-12T04:50:15.523Z,99.99
2023-04-12T04:51:15.520Z,99.99
2023-04-12T04:52:15.492Z,99.99
2023-04-12T04:53:15.672Z,99.99
2023-04-12T04:54:15.478Z,99.99
2023-04-12T04:55:15.488Z,99.99
2023-04-12T04:56:15.440Z,99.99
2023-04-12T04:57:15.461Z,99.99
2023-04-12T04:58:15.608Z,99.99
2023-04-12T04:59:15.397Z,99.99
2023-04-12T05:00:15.390Z,99.99
2023-04-12T05:01:15.386Z,99.99
2023-04-12T05:02:15.411Z,99.99
2023-04-12T05:03:15.391Z,99.99
2023-04-12T05:04:15.368Z,99.99
2023-04-12T05:05:15.510Z,99.99
2023-04-12T05:06:15.327Z,99.99
2023-04-12T05:07:15.327Z,99.99
2023-04-12T05:08:15.275Z,99.99
2023-04-12T05:09:15.279Z,99.99
2023-04-12T05:10:15.278Z,99.99
2023-04-12T05:11:15.242Z,99.99
2023-04-12T05:12:15.231Z,99.99
2023-04-12T05:13:15.219Z,99.99
2023-04-12T05:14:15.186Z,99.99
2023-04-12T05:15:15.175Z,99.99
2023-04-12T05:16:15.192Z,99.99
2023-04-12T05:17:15.249Z,99.99
2023-04-12T05:18:15.172Z,99.99
2023-04-12T05:19:15.197Z,99.99
2023-04-12T05:20:15.155Z,99.99
2023-04-12T05:21:15.118Z,99.99
2023-04-12T05:22:15.305Z,99.99
2023-04-12T05:23:15.127Z,99.99
2023-04-12T05:24:15.072Z,99.99
2023-04-12T05:25:15.034Z,99.99
2023-04-12T05:26:15.146Z,99.99
2023-04-12T05:27:15.040Z,99.99
2023-04-12T05:28:15.020Z,99.99
2023-04-12T05:29:15.193Z,99.99
2023-04-12T05:30:14.995Z,99.99
2023-04-12T05:31:14.997Z,99.99
2023-04-12T05:32:14.991Z,99.99
2023-04-12T05:33:14.936Z,99.99
2023-04-12T05:34:14.932Z,99.99
2023-04-12T05:35:15.016Z,99.99
2023-04-12T05:36:14.908Z,99.99
2023-04-12T05:37:14.878Z,99.99
2023-04-12T05:38:14.903Z,99.99
2023-04-12T05:39:14.902Z,99.99
2023-04-12T05:40:14.849Z,99.99
2023-04-12T05:41:14.878Z,99.99
2023-04-12T05:42:14.868Z,99.99
2023-04-12T05:43:14.826Z,99.99
2023-04-12T05:44:14.829Z,99.99
2023-04-12T05:45:14.795Z,99.99
2023-04-12T05:46:14.837Z,99.99
2023-04-12T05:47:14.776Z,99.99
2023-04-12T05:48:14.780Z,99.99
2023-04-12T05:49:14.804Z,99.99
2023-04-12T05:50:14.770Z,99.99
2023-04-12T05:51:14.759Z,99.99
2023-04-12T05:52:14.917Z,99.99
2023-04-12T05:53:14.726Z,99.99
2023-04-12T05:54:14.681Z,99.99
2023-04-12T05:55:14.688Z,99.99
2023-04-12T05:56:14.649Z,99.99
2023-04-12T05:57:14.734Z,99.99
2023-04-12T05:58:14.615Z,99.99
2023-04-12T05:59:14.601Z,99.99
2023-04-12T06:00:14.576Z,99.99
2023-04-12T06:01:14.587Z,99.99
2023-04-12T06:02:14.603Z,99.99
2023-04-12T06:03:14.622Z,99.99
2023-04-12T06:04:14.655Z,99.99
2023-04-12T06:05:14.563Z,99.99
2023-04-12T06:06:14.539Z,99.99
2023-04-12T06:07:14.494Z,99.99
2023-04-12T06:08:14.496Z,99.99
2023-04-12T06:09:14.453Z,99.99
2023-04-12T06:10:14.429Z,99.99
2023-04-12T06:11:14.464Z,99.99
2023-04-12T06:12:14.435Z,99.99
2023-04-12T06:13:14.427Z,99.99
2023-04-12T06:14:14.407Z,99.99
2023-04-12T06:15:14.362Z,99.99
2023-04-12T06:16:14.471Z,99.99
2023-04-12T06:17:14.408Z,99.99
2023-04-12T06:18:14.327Z,99.99
2023-04-12T06:19:14.352Z,99.99
2023-04-12T06:20:14.546Z,99.99
2023-04-12T06:21:14.319Z,99.99
2023-04-12T06:22:14.318Z,99.99
2023-04-12T06:23:14.316Z,99.99
2023-04-12T06:24:14.272Z,99.99
2023-04-12T06:25:14.315Z,99.99
2023-04-12T06:26:14.751Z,99.99
2023-04-12T06:27:14.290Z,99.99
2023-04-12T06:28:14.250Z,99.99
2023-04-12T06:29:14.204Z,99.99
2023-04-12T06:30:14.222Z,99.99
2023-04-12T06:31:14.256Z,99.99
2023-04-12T06:32:14.227Z,99.99
2023-04-12T06:33:14.271Z,99.99
2023-04-12T06:34:14.171Z,99.99
2023-04-12T06:35:14.176Z,99.99
2023-04-12T06:36:14.170Z,99.99
2023-04-12T06:37:14.128Z,99.99
2023-04-12T06:38:14.112Z,99.99
2023-04-12T06:39:14.298Z,99.99
2023-04-12T06:40:14.101Z,99.99
2023-04-12T06:41:14.065Z,99.99
2023-04-12T06:42:14.863Z,99.99
2023-04-12T06:43:14.051Z,99.99
2023-04-12T06:44:14.049Z,99.99
2023-04-12T06:45:14.250Z,99.99
2023-04-12T06:46:13.998Z,99.99
2023-04-12T06:47:14.031Z,99.99
2023-04-12T06:48:13.990Z,99.99
2023-04-12T06:49:14.016Z,99.99
2023-04-12T06:50:13.937Z,99.99
2023-04-12T06:51:13.940Z,99.99
2023-04-12T06:52:13.941Z,99.99
2023-04-12T06:53:13.974Z,99.99
2023-04-12T06:54:13.977Z,99.99
2023-04-12T06:55:13.905Z,99.99
2023-04-12T06:56:15.371Z,99.99
2023-04-12T06:57:13.881Z,99.99
2023-04-12T06:58:13.892Z,99.99
2023-04-12T06:59:13.908Z,99.99
2023-04-12T07:00:13.811Z,99.99
2023-04-12T07:01:14.164Z,99.99
2023-04-12T07:02:13.824Z,99.99
2023-04-12T07:03:13.855Z,99.99
2023-04-12T07:04:13.921Z,99.99
2023-04-12T07:05:13.810Z,99.99
2023-04-12T07:06:24.325Z,99.99
2023-04-12T07:07:13.767Z,99.99
2023-04-12T07:08:13.754Z,99.99
2023-04-12T07:09:13.818Z,99.99
2023-04-12T07:10:13.715Z,99.99
2023-04-12T07:11:20.804Z,99.99
2023-04-12T07:12:13.702Z,99.99
2023-04-12T07:13:14.249Z,99.99
2023-04-12T07:14:13.684Z,99.79
2023-04-12T07:15:13.907Z,98.83
2023-04-12T07:16:13.651Z,98.17
2023-04-12T07:17:13.617Z,98.08
2023-04-12T07:18:13.664Z,98.27
2023-04-12T07:19:13.666Z,98.55
2023-04-12T07:20:13.645Z,97.50
2023-04-12T07:21:13.824Z,96.94
2023-04-12T07:22:14.250Z,97.79
2023-04-12T07:23:13.607Z,99.50
2023-04-12T07:24:13.566Z,98.17
2023-04-12T07:25:13.587Z,98.46
2023-04-12T07:26:13.551Z,98.65
2023-04-12T07:27:13.759Z,98.69
2023-04-12T07:28:13.601Z,98.50
2023-04-12T07:29:13.529Z,98.03
2023-04-12T07:30:13.534Z,96.41
2023-04-12T07:31:13.512Z,97.69
2023-04-12T07:32:13.492Z,99.08
2023-04-12T07:33:19.508Z,99.99
2023-04-12T07:34:13.519Z,97.93
2023-04-12T07:35:13.627Z,97.65
2023-04-12T07:36:13.466Z,96.79
2023-04-12T07:37:13.474Z,96.22
2023-04-12T07:38:14.994Z,95.08
2023-04-12T07:39:13.452Z,95.27
2023-04-12T07:40:13.416Z,95.46
2023-04-12T07:41:13.370Z,97.27
2023-04-12T07:42:13.382Z,96.12
2023-04-12T07:43:13.369Z,95.75
2023-04-12T07:44:13.376Z,96.17
2023-04-12T07:45:13.427Z,95.89
2023-04-12T07:46:13.384Z,94.93
2023-04-12T07:47:13.506Z,95.89
2023-04-12T07:48:13.317Z,95.51
2023-04-12T07:49:13.332Z,94.84
2023-04-12T07:50:13.433Z,94.84
2023-04-12T07:51:13.290Z,93.98
2023-04-12T07:52:13.295Z,94.84
2023-04-12T07:53:13.265Z,94.03
2023-04-12T07:54:13.271Z,93.55
2023-04-12T07:55:13.251Z,95.46
2023-04-12T07:56:13.246Z,94.22
2023-04-12T07:57:13.211Z,92.98
2023-04-12T07:58:13.228Z,94.51
2023-04-12T07:59:13.224Z,94.51
2023-04-12T08:00:13.206Z,92.89
2023-04-12T08:01:13.200Z,93.46
2023-04-12T08:02:13.368Z,92.98
2023-04-12T08:03:13.532Z,93.74
2023-04-12T08:04:13.459Z,94.13
2023-04-12T08:05:13.191Z,94.79
2023-04-12T08:06:13.247Z,92.98
2023-04-12T08:07:13.135Z,92.89
2023-04-12T08:08:13.119Z,93.37
2023-04-12T08:09:13.141Z,93.41
2023-04-12T08:10:13.110Z,93.74
2023-04-12T08:11:13.073Z,92.74
2023-04-12T08:12:13.110Z,94.27
2023-04-12T08:13:13.065Z,93.03
2023-04-12T08:14:13.101Z,92.17
2023-04-12T08:15:13.049Z,92.27
2023-04-12T08:16:13.106Z,92.74
2023-04-12T08:17:13.053Z,92.93
2023-04-12T08:18:13.009Z,92.27
2023-04-12T08:19:13.062Z,91.31
2023-04-12T08:20:13.009Z,91.98
2023-04-12T08:21:12.992Z,92.41
2023-04-12T08:22:13.759Z,92.50
2023-04-12T08:23:12.981Z,92.32
2023-04-12T08:24:13.003Z,90.31
2023-04-12T08:25:12.961Z,89.36
2023-04-12T08:26:12.963Z,90.12
2023-04-12T08:27:12.970Z,89.45
2023-04-12T08:28:13.005Z,90.31
2023-04-12T08:29:12.915Z,89.45
2023-04-12T08:30:12.943Z,88.64
2023-04-12T08:31:12.980Z,88.83
2023-04-12T08:32:12.922Z,87.83
2023-04-12T08:33:12.925Z,87.26
2023-04-12T08:34:12.872Z,87.83
2023-04-12T08:35:12.897Z,88.50
2023-04-12T08:36:12.955Z,88.45
2023-04-12T08:37:12.876Z,86.21
2023-04-12T08:38:12.829Z,85.64
2023-04-12T08:39:12.823Z,86.02
2023-04-12T08:40:12.992Z,85.64
2023-04-12T08:41:13.478Z,85.83
2023-04-12T08:42:12.828Z,86.21
2023-04-12T08:43:12.812Z,87.26
2023-04-12T08:44:12.799Z,86.88
2023-04-12T08:45:12.822Z,87.35
2023-04-12T08:46:12.797Z,86.11
2023-04-12T08:47:12.777Z,86.11
2023-04-12T08:48:12.752Z,87.83
2023-04-12T08:49:12.752Z,87.16
2023-04-12T08:50:12.739Z,86.98
2023-04-12T08:51:12.802Z,87.93
2023-04-12T08:52:12.699Z,86.78
2023-04-12T08:53:12.703Z,87.83
2023-04-12T08:54:12.670Z,87.35
2023-04-12T08:55:12.679Z,87.64
2023-04-12T08:56:12.705Z,87.35
2023-04-12T08:57:12.679Z,87.26
2023-04-12T08:58:12.661Z,87.12
2023-04-12T08:59:12.672Z,86.65
2023-04-12T09:00:12.635Z,87.12
2023-04-12T09:01:12.618Z,87.79
2023-04-12T09:02:12.729Z,86.78
2023-04-12T09:03:12.984Z,87.16
2023-04-12T09:04:12.875Z,87.26
2023-04-12T09:05:12.620Z,87.35
2023-04-12T09:06:12.599Z,87.16
2023-04-12T09:07:12.607Z,87.54
2023-04-12T09:08:12.574Z,86.21
2023-04-12T09:09:12.538Z,86.02
2023-04-12T09:10:12.518Z,85.54
2023-04-12T09:11:12.538Z,85.54
2023-04-12T09:12:12.495Z,85.25
2023-04-12T09:13:12.537Z,85.73
2023-04-12T09:14:12.511Z,84.78
2023-04-12T09:15:12.515Z,85.54
2023-04-12T09:16:12.451Z,85.54
2023-04-12T09:17:12.538Z,86.11
2023-04-12T09:18:13.911Z,86.30
2023-04-12T09:19:12.446Z,86.02
2023-04-12T09:20:12.527Z,86.21
2023-04-12T09:21:12.432Z,86.11
2023-04-12T09:22:12.420Z,84.78
2023-04-12T09:23:12.450Z,86.49
2023-04-12T09:24:14.649Z,84.88
2023-04-12T09:25:12.393Z,85.35
2023-04-12T09:26:12.375Z,85.35
2023-04-12T09:27:12.354Z,85.54
2023-04-12T09:28:12.332Z,85.64
2023-04-12T09:29:12.409Z,84.97
2023-04-12T09:30:12.399Z,86.21
2023-04-12T09:31:12.483Z,86.78
2023-04-12T09:32:12.344Z,85.73
2023-04-12T09:33:12.344Z,85.64
2023-04-12T09:34:12.693Z,86.02
2023-04-12T09:35:12.480Z,85.16
2023-04-12T09:36:12.291Z,85.16
2023-04-12T09:37:12.281Z,85.06
2023-04-12T09:38:12.245Z,83.96
2023-04-12T09:39:12.265Z,84.49
2023-04-12T09:40:12.235Z,84.92
2023-04-12T09:41:12.423Z,84.72
2023-04-12T09:42:25.504Z,83.83
2023-04-12T09:43:12.191Z,84.78
2023-04-12T09:44:12.190Z,84.34
2023-04-12T09:45:12.217Z,84.72
2023-04-12T09:46:12.244Z,85.01
2023-04-12T09:47:12.355Z,83.96
2023-04-12T09:48:12.226Z,83.96
2023-04-12T09:49:12.134Z,84.44
2023-04-12T09:50:12.158Z,83.39
2023-04-12T09:51:12.129Z,83.87
2023-04-12T09:52:12.150Z,84.16
2023-04-12T09:53:12.151Z,83.58
2023-04-12T09:54:12.126Z,83.05
2023-04-12T09:55:12.318Z,83.29
2023-04-12T09:56:12.067Z,83.77
2023-04-12T09:57:12.082Z,83.29
2023-04-12T09:58:12.056Z,83.67
2023-04-12T09:59:12.029Z,85.01
2023-04-12T10:00:12.242Z,85.30
2023-04-12T10:01:12.289Z,84.53
2023-04-12T10:02:12.297Z,84.92
2023-04-12T10:03:12.187Z,84.11
2023-04-12T10:04:12.121Z,84.72
2023-04-12T10:05:12.307Z,84.92
2023-04-12T10:06:11.990Z,85.30
2023-04-12T10:07:13.861Z,85.21
2023-04-12T10:08:12.149Z,84.78
2023-04-12T10:09:11.957Z,84.59
2023-04-12T10:10:11.942Z,85.83
2023-04-12T10:11:11.930Z,86.11
2023-04-12T10:12:11.912Z,85.06
2023-04-12T10:13:11.935Z,85.06
2023-04-12T10:14:11.954Z,86.02
2023-04-12T10:15:11.919Z,86.02
2023-04-12T10:16:11.894Z,86.30
2023-04-12T10:17:11.874Z,86.30
2023-04-12T10:18:11.929Z,87.16
2023-04-12T10:19:11.858Z,87.26
2023-04-12T10:20:11.844Z,87.83
2023-04-12T10:21:11.838Z,88.02
2023-04-12T10:22:11.809Z,88.21
2023-04-12T10:23:11.805Z,88.98
2023-04-12T10:24:12.034Z,90.22
2023-04-12T10:25:11.782Z,90.79
2023-04-12T10:26:11.827Z,91.36
2023-04-12T10:27:11.879Z,92.36
2023-04-12T10:28:11.766Z,94.17
2023-04-12T10:29:11.755Z,95.22
2023-04-12T10:30:11.728Z,96.08
2023-04-12T10:31:11.778Z,95.98
2023-04-12T10:32:11.763Z,95.70
2023-04-12T10:33:11.730Z,97.70
2023-04-12T10:34:11.730Z,98.27
2023-04-12T10:35:11.683Z,97.56
2023-04-12T10:36:11.689Z,98.60
2023-04-12T10:37:11.661Z,99.75
2023-04-12T10:38:11.663Z,99.99
2023-04-12T10:39:11.680Z,99.99
2023-04-12T10:40:11.658Z,99.99
2023-04-12T10:41:11.659Z,99.99
2023-04-12T10:42:11.626Z,99.99
2023-04-12T10:43:11.655Z,99.99
2023-04-12T10:44:11.596Z,99.99
2023-04-12T10:45:11.578Z,99.99
2023-04-12T10:46:11.622Z,99.99
2023-04-12T10:47:11.617Z,99.99
2023-04-12T10:48:11.645Z,99.99
2023-04-12T10:49:11.609Z,99.99
2023-04-12T10:50:11.530Z,99.99
2023-04-12T10:51:11.508Z,99.99
2023-04-12T10:52:11.717Z,99.99
2023-04-12T10:53:11.490Z,99.99
2023-04-12T10:54:11.493Z,99.99
2023-04-12T10:55:11.502Z,99.99
2023-04-12T10:56:11.494Z,99.99
2023-04-12T10:57:11.449Z,99.99
2023-04-12T10:58:11.437Z,99.99
2023-04-12T10:59:11.473Z,99.99
2023-04-12T11:00:11.501Z,99.99
2023-04-12T11:01:11.676Z,99.99
2023-04-12T11:02:11.582Z,99.99
2023-04-12T11:03:11.484Z,99.99
2023-04-12T11:04:11.887Z,99.99
2023-04-12T11:05:11.809Z,99.99
2023-04-12T11:06:26.410Z,99.99
2023-04-12T11:07:11.385Z,99.99
2023-04-12T11:08:11.339Z,99.99
2023-04-12T11:09:11.362Z,99.99
2023-04-12T11:10:11.311Z,99.99
2023-04-12T11:11:11.318Z,99.99
2023-04-12T11:12:11.459Z,99.99
2023-04-12T11:13:11.290Z,99.99
2023-04-12T11:14:11.282Z,99.99
2023-04-12T11:15:11.307Z,99.99
2023-04-12T11:16:11.313Z,99.99
2023-04-12T11:17:11.380Z,99.99
2023-04-12T11:18:11.284Z,99.99
2023-04-12T11:19:11.234Z,99.99
2023-04-12T11:20:11.220Z,99.99
2023-04-12T11:21:11.205Z,99.99
2023-04-12T11:22:11.231Z,99.99
2023-04-12T11:23:11.465Z,99.99
2023-04-12T11:24:11.217Z,99.99
2023-04-12T11:25:11.197Z,99.99
2023-04-12T11:26:11.184Z,99.99
2023-04-12T11:27:11.220Z,99.99
2023-04-12T11:28:25.216Z,99.99
2023-04-12T11:29:11.136Z,99.99
2023-04-12T11:30:11.115Z,99.99
2023-04-12T11:31:11.142Z,99.99
2023-04-12T11:32:11.145Z,99.99
2023-04-12T11:33:11.104Z,99.99
2023-04-12T11:34:13.264Z,99.99
2023-04-12T11:35:11.071Z,99.99
2023-04-12T11:36:11.039Z,99.99
2023-04-12T11:37:11.086Z,99.99
2023-04-12T11:38:11.011Z,99.99
2023-04-12T11:39:11.006Z,99.99
2023-04-12T11:40:11.034Z,99.99
2023-04-12T11:41:11.022Z,99.99
2023-04-12T11:42:11.018Z,99.99
2023-04-12T11:43:10.958Z,99.99
2023-04-12T11:44:10.991Z,99.99
2023-04-12T11:45:15.839Z,99.99
2023-04-12T11:46:10.974Z,99.99
2023-04-12T11:47:10.951Z,99.99
2023-04-12T11:48:11.107Z,99.99
2023-04-12T11:49:10.945Z,99.99
2023-04-12T11:50:11.102Z,99.99
2023-04-12T11:51:11.790Z,99.99
2023-04-12T11:52:10.909Z,99.99
2023-04-12T11:53:10.863Z,99.99
2023-04-12T11:54:10.836Z,99.99
2023-04-12T11:55:11.253Z,99.99
2023-04-12T11:56:10.812Z,99.99
2023-04-12T11:57:10.825Z,99.99
2023-04-12T11:58:10.787Z,99.99
2023-04-12T11:59:11.198Z,99.99
2023-04-12T12:00:10.901Z,99.99
2023-04-12T12:01:10.770Z,99.99
2023-04-12T12:02:22.012Z,99.99
2023-04-12T12:03:10.874Z,99.99
2023-04-12T12:04:10.926Z,99.99
2023-04-12T12:05:10.881Z,99.99
2023-04-12T12:06:11.007Z,99.99
2023-04-12T12:07:11.216Z,99.99
2023-04-12T12:08:10.695Z,99.99
2023-04-12T12:09:10.943Z,99.99
2023-04-12T12:10:10.969Z,99.99
2023-04-12T12:11:10.646Z,99.99
2023-04-12T12:12:10.681Z,99.99
2023-04-12T12:13:10.659Z,99.99
2023-04-12T12:14:10.904Z,99.99
2023-04-12T12:15:10.598Z,99.99
2023-04-12T12:16:10.671Z,99.99
2023-04-12T12:17:10.592Z,99.99
2023-04-12T12:18:10.616Z,99.99
2023-04-12T12:19:10.711Z,99.99
2023-04-12T12:20:10.640Z,99.99
2023-04-12T12:21:10.567Z,99.99
2023-04-12T12:22:10.534Z,99.99
2023-04-12T12:23:10.529Z,99.99
2023-04-12T12:24:10.543Z,99.99
2023-04-12T12:25:10.520Z,99.99
2023-04-12T12:26:18.624Z,99.99
2023-04-12T12:27:10.500Z,99.99
2023-04-12T12:28:10.621Z,99.99
2023-04-12T12:29:10.497Z,99.99
2023-04-12T12:30:10.496Z,99.99
2023-04-12T12:31:10.443Z,99.99
2023-04-12T12:32:10.458Z,99.99
2023-04-12T12:33:10.635Z,99.99
2023-04-12T12:34:10.524Z,99.99
2023-04-12T12:35:10.517Z,99.99
2023-04-12T12:36:10.523Z,99.99
2023-04-12T12:37:10.399Z,99.99
2023-04-12T12:38:10.397Z,99.99
2023-04-12T12:39:10.642Z,99.99
2023-04-12T12:40:10.606Z,99.99
2023-04-12T12:41:10.392Z,99.99
2023-04-12T12:42:10.337Z,99.99
2023-04-12T12:43:10.360Z,99.99
2023-04-12T12:44:10.317Z,99.99
2023-04-12T12:45:10.293Z,99.99
2023-04-12T12:46:10.338Z,99.99
2023-04-12T12:47:14.583Z,99.99
2023-04-12T12:48:10.431Z,99.99
2023-04-12T12:49:10.278Z,99.99
2023-04-12T12:50:10.328Z,99.99
2023-04-12T12:51:10.345Z,99.99
2023-04-12T12:52:10.315Z,99.99